sensor_id;sensor_type;location;lat;lon;timestamp;P1;durP1;ratioP1;P2;durP2;ratioP2
63807;SDS011;49961;43.970;22.868;2022-09-09T00:00:24;9.57;;;7.37;;
63807;SDS011;49961;43.970;22.868;2022-09-09T00:01:34;10.10;;;7.50;;
63807;SDS011;49961;43.970;22.868;2022-09-09T00:06:43;12.67;;;8.03;;
63807;SDS011;49961;43.970;22.868;2022-09-09T00:07:47;17.20;;;8.97;;
63807;SDS011;49961;43.970;22.868;2022-09-09T00:11:20;10.70;;;8.00;;
63807;SDS011;49961;43.970;22.868;2022-09-09T00:13:45;14.70;;;7.83;;
63807;SDS011;49961;43.970;22.868;2022-09-09T00:14:54;10.30;;;7.93;;
63807;SDS011;49961;43.970;22.868;2022-09-09T00:16:17;14.30;;;7.87;;
63807;SDS011;49961;43.970;22.868;2022-09-09T00:18:33;11.90;;;8.03;;
63807;SDS011;49961;43.970;22.868;2022-09-09T00:20:17;10.67;;;8.00;;
63807;SDS011;49961;43.970;22.868;2022-09-09T00:21:35;11.83;;;7.30;;
63807;SDS011;49961;43.970;22.868;2022-09-09T00:22:40;10.47;;;6.63;;
63807;SDS011;49961;43.970;22.868;2022-09-09T00:23:51;7.70;;;6.90;;
63807;SDS011;49961;43.970;22.868;2022-09-09T00:24:55;10.93;;;7.80;;
63807;SDS011;49961;43.970;22.868;2022-09-09T00:27:16;10.83;;;8.50;;
63807;SDS011;49961;43.970;22.868;2022-09-09T00:28:25;11.63;;;8.60;;
63807;SDS011;49961;43.970;22.868;2022-09-09T00:29:39;9.93;;;8.57;;
63807;SDS011;49961;43.970;22.868;2022-09-09T00:30:45;13.03;;;8.50;;
63807;SDS011;49961;43.970;22.868;2022-09-09T00:31:49;10.40;;;9.27;;
63807;SDS011;49961;43.970;22.868;2022-09-09T00:32:59;10.20;;;9.00;;
63807;SDS011;49961;43.970;22.868;2022-09-09T00:34:13;9.97;;;8.97;;
63807;SDS011;49961;43.970;22.868;2022-09-09T00:35:27;10.33;;;8.50;;
63807;SDS011;49961;43.970;22.868;2022-09-09T00:36:32;10.80;;;9.70;;
63807;SDS011;49961;43.970;22.868;2022-09-09T00:37:35;10.97;;;9.30;;
63807;SDS011;49961;43.970;22.868;2022-09-09T00:38:45;10.60;;;9.53;;
63807;SDS011;49961;43.970;22.868;2022-09-09T00:39:53;11.20;;;9.27;;
63807;SDS011;49961;43.970;22.868;2022-09-09T00:41:02;9.50;;;8.57;;
63807;SDS011;49961;43.970;22.868;2022-09-09T00:42:45;10.87;;;8.73;;
63807;SDS011;49961;43.970;22.868;2022-09-09T00:43:56;10.70;;;8.60;;
63807;SDS011;49961;43.970;22.868;2022-09-09T00:45:18;12.63;;;8.57;;
63807;SDS011;49961;43.970;22.868;2022-09-09T00:47:01;9.57;;;8.40;;
63807;SDS011;49961;43.970;22.868;2022-09-09T00:48:41;10.23;;;8.00;;
63807;SDS011;49961;43.970;22.868;2022-09-09T00:51:05;10.53;;;7.90;;
63807;SDS011;49961;43.970;22.868;2022-09-09T00:52:22;10.90;;;8.47;;
63807;SDS011;49961;43.970;22.868;2022-09-09T00:55:03;10.37;;;9.00;;
63807;SDS011;49961;43.970;22.868;2022-09-09T00:56:12;10.93;;;9.37;;
63807;SDS011;49961;43.970;22.868;2022-09-09T00:57:28;11.97;;;9.07;;
63807;SDS011;49961;43.970;22.868;2022-09-09T00:58:31;10.90;;;9.90;;
63807;SDS011;49961;43.970;22.868;2022-09-09T01:00:51;11.47;;;9.13;;
63807;SDS011;49961;43.970;22.868;2022-09-09T01:01:53;11.67;;;9.17;;
63807;SDS011;49961;43.970;22.868;2022-09-09T01:04:16;12.77;;;9.60;;
63807;SDS011;49961;43.970;22.868;2022-09-09T01:07:15;11.10;;;9.13;;
63807;SDS011;49961;43.970;22.868;2022-09-09T01:10:59;9.47;;;8.47;;
63807;SDS011;49961;43.970;22.868;2022-09-09T01:12:15;10.37;;;8.83;;
63807;SDS011;49961;43.970;22.868;2022-09-09T01:13:27;11.80;;;9.17;;
63807;SDS011;49961;43.970;22.868;2022-09-09T01:15:34;12.33;;;8.73;;
63807;SDS011;49961;43.970;22.868;2022-09-09T01:16:35;12.97;;;9.20;;
63807;SDS011;49961;43.970;22.868;2022-09-09T01:17:41;10.77;;;8.67;;
63807;SDS011;49961;43.970;22.868;2022-09-09T01:18:45;12.30;;;9.10;;
63807;SDS011;49961;43.970;22.868;2022-09-09T01:22:34;10.90;;;8.27;;
63807;SDS011;49961;43.970;22.868;2022-09-09T01:25:29;10.57;;;8.40;;
63807;SDS011;49961;43.970;22.868;2022-09-09T01:26:50;9.50;;;8.50;;
63807;SDS011;49961;43.970;22.868;2022-09-09T01:27:55;9.73;;;8.60;;
63807;SDS011;49961;43.970;22.868;2022-09-09T01:29:00;12.03;;;8.67;;
63807;SDS011;49961;43.970;22.868;2022-09-09T01:30:00;10.13;;;8.70;;
63807;SDS011;49961;43.970;22.868;2022-09-09T01:31:05;9.70;;;8.50;;
63807;SDS011;49961;43.970;22.868;2022-09-09T01:33:40;10.00;;;8.57;;
63807;SDS011;49961;43.970;22.868;2022-09-09T01:34:40;11.73;;;8.87;;
63807;SDS011;49961;43.970;22.868;2022-09-09T01:37:24;8.90;;;8.00;;
63807;SDS011;49961;43.970;22.868;2022-09-09T01:38:24;9.97;;;8.57;;
63807;SDS011;49961;43.970;22.868;2022-09-09T01:39:25;9.47;;;8.57;;
63807;SDS011;49961;43.970;22.868;2022-09-09T01:40:26;10.00;;;9.00;;
63807;SDS011;49961;43.970;22.868;2022-09-09T01:41:27;11.33;;;8.83;;
63807;SDS011;49961;43.970;22.868;2022-09-09T01:42:27;9.80;;;8.80;;
63807;SDS011;49961;43.970;22.868;2022-09-09T01:43:28;11.50;;;8.40;;
63807;SDS011;49961;43.970;22.868;2022-09-09T01:44:29;10.20;;;8.63;;
63807;SDS011;49961;43.970;22.868;2022-09-09T01:45:30;13.13;;;8.90;;
63807;SDS011;49961;43.970;22.868;2022-09-09T01:46:31;12.77;;;8.87;;
63807;SDS011;49961;43.970;22.868;2022-09-09T01:47:31;11.03;;;9.20;;
63807;SDS011;49961;43.970;22.868;2022-09-09T01:48:32;9.30;;;8.33;;
63807;SDS011;49961;43.970;22.868;2022-09-09T01:49:33;10.93;;;8.07;;
63807;SDS011;49961;43.970;22.868;2022-09-09T01:50:34;13.83;;;8.80;;
63807;SDS011;49961;43.970;22.868;2022-09-09T01:51:35;14.10;;;9.33;;
63807;SDS011;49961;43.970;22.868;2022-09-09T01:52:38;10.83;;;9.13;;
63807;SDS011;49961;43.970;22.868;2022-09-09T01:53:39;11.50;;;9.13;;
63807;SDS011;49961;43.970;22.868;2022-09-09T01:54:41;12.17;;;9.00;;
63807;SDS011;49961;43.970;22.868;2022-09-09T01:55:43;13.00;;;9.20;;
63807;SDS011;49961;43.970;22.868;2022-09-09T02:02:36;9.63;;;8.30;;
63807;SDS011;49961;43.970;22.868;2022-09-09T02:03:47;11.13;;;8.90;;
63807;SDS011;49961;43.970;22.868;2022-09-09T02:04:57;13.93;;;8.67;;
63807;SDS011;49961;43.970;22.868;2022-09-09T02:06:32;8.73;;;7.47;;
63807;SDS011;49961;43.970;22.868;2022-09-09T02:08:50;11.57;;;8.23;;
63807;SDS011;49961;43.970;22.868;2022-09-09T02:10:12;12.67;;;9.23;;
63807;SDS011;49961;43.970;22.868;2022-09-09T02:11:20;14.40;;;8.53;;
63807;SDS011;49961;43.970;22.868;2022-09-09T02:12:23;13.70;;;8.67;;
63807;SDS011;49961;43.970;22.868;2022-09-09T02:13:26;12.87;;;8.40;;
63807;SDS011;49961;43.970;22.868;2022-09-09T02:14:30;16.00;;;8.50;;
63807;SDS011;49961;43.970;22.868;2022-09-09T02:18:04;11.43;;;7.97;;
63807;SDS011;49961;43.970;22.868;2022-09-09T02:19:12;14.00;;;8.83;;
63807;SDS011;49961;43.970;22.868;2022-09-09T02:20:25;9.47;;;7.93;;
63807;SDS011;49961;43.970;22.868;2022-09-09T02:21:28;10.17;;;8.47;;
63807;SDS011;49961;43.970;22.868;2022-09-09T02:22:30;9.90;;;7.93;;
63807;SDS011;49961;43.970;22.868;2022-09-09T02:23:34;13.73;;;8.83;;
63807;SDS011;49961;43.970;22.868;2022-09-09T02:24:37;10.83;;;8.13;;
63807;SDS011;49961;43.970;22.868;2022-09-09T02:25:39;10.67;;;8.80;;
63807;SDS011;49961;43.970;22.868;2022-09-09T02:26:42;13.97;;;8.30;;
63807;SDS011;49961;43.970;22.868;2022-09-09T02:27:46;10.00;;;8.13;;
63807;SDS011;49961;43.970;22.868;2022-09-09T02:28:50;12.77;;;8.57;;
63807;SDS011;49961;43.970;22.868;2022-09-09T02:29:53;9.53;;;8.23;;
63807;SDS011;49961;43.970;22.868;2022-09-09T02:30:57;9.27;;;8.23;;
63807;SDS011;49961;43.970;22.868;2022-09-09T02:32:00;9.70;;;8.70;;
63807;SDS011;49961;43.970;22.868;2022-09-09T02:33:05;10.60;;;8.20;;
63807;SDS011;49961;43.970;22.868;2022-09-09T02:34:10;9.57;;;8.67;;
63807;SDS011;49961;43.970;22.868;2022-09-09T02:35:14;12.30;;;8.00;;
63807;SDS011;49961;43.970;22.868;2022-09-09T02:36:18;9.47;;;8.23;;
63807;SDS011;49961;43.970;22.868;2022-09-09T02:37:20;12.07;;;8.53;;
63807;SDS011;49961;43.970;22.868;2022-09-09T02:38:25;12.27;;;8.23;;
63807;SDS011;49961;43.970;22.868;2022-09-09T02:39:30;10.83;;;8.30;;
63807;SDS011;49961;43.970;22.868;2022-09-09T02:40:30;11.43;;;8.70;;
63807;SDS011;49961;43.970;22.868;2022-09-09T02:41:33;11.60;;;8.33;;
63807;SDS011;49961;43.970;22.868;2022-09-09T02:42:38;13.37;;;8.40;;
63807;SDS011;49961;43.970;22.868;2022-09-09T02:43:40;10.00;;;8.30;;
63807;SDS011;49961;43.970;22.868;2022-09-09T02:44:40;11.77;;;8.37;;
63807;SDS011;49961;43.970;22.868;2022-09-09T02:45:48;11.17;;;8.70;;
63807;SDS011;49961;43.970;22.868;2022-09-09T02:48:24;9.23;;;8.20;;
63807;SDS011;49961;43.970;22.868;2022-09-09T02:52:06;9.73;;;8.30;;
63807;SDS011;49961;43.970;22.868;2022-09-09T02:54:26;11.80;;;8.70;;
63807;SDS011;49961;43.970;22.868;2022-09-09T02:55:37;11.13;;;9.53;;
63807;SDS011;49961;43.970;22.868;2022-09-09T02:56:43;11.93;;;8.80;;
63807;SDS011;49961;43.970;22.868;2022-09-09T02:57:50;9.87;;;8.63;;
63807;SDS011;49961;43.970;22.868;2022-09-09T02:58:52;9.53;;;8.53;;
63807;SDS011;49961;43.970;22.868;2022-09-09T02:59:56;13.77;;;8.83;;
63807;SDS011;49961;43.970;22.868;2022-09-09T03:00:58;10.90;;;8.00;;
63807;SDS011;49961;43.970;22.868;2022-09-09T03:02:01;11.50;;;8.90;;
63807;SDS011;49961;43.970;22.868;2022-09-09T03:03:06;12.90;;;8.70;;
63807;SDS011;49961;43.970;22.868;2022-09-09T03:04:08;13.07;;;8.47;;
63807;SDS011;49961;43.970;22.868;2022-09-09T03:05:09;14.10;;;8.57;;
63807;SDS011;49961;43.970;22.868;2022-09-09T03:06:09;15.87;;;7.87;;
63807;SDS011;49961;43.970;22.868;2022-09-09T03:07:11;11.50;;;8.10;;
63807;SDS011;49961;43.970;22.868;2022-09-09T03:08:12;13.13;;;8.30;;
63807;SDS011;49961;43.970;22.868;2022-09-09T03:09:13;10.50;;;7.87;;
63807;SDS011;49961;43.970;22.868;2022-09-09T03:10:13;14.43;;;8.43;;
63807;SDS011;49961;43.970;22.868;2022-09-09T03:11:14;13.73;;;8.60;;
63807;SDS011;49961;43.970;22.868;2022-09-09T03:12:14;10.00;;;7.53;;
63807;SDS011;49961;43.970;22.868;2022-09-09T03:13:15;9.10;;;8.07;;
63807;SDS011;49961;43.970;22.868;2022-09-09T03:14:15;12.27;;;8.23;;
63807;SDS011;49961;43.970;22.868;2022-09-09T03:15:16;12.67;;;8.53;;
63807;SDS011;49961;43.970;22.868;2022-09-09T03:16:17;11.40;;;8.13;;
63807;SDS011;49961;43.970;22.868;2022-09-09T03:17:17;13.47;;;8.90;;
63807;SDS011;49961;43.970;22.868;2022-09-09T03:18:18;12.90;;;8.70;;
63807;SDS011;49961;43.970;22.868;2022-09-09T03:19:19;14.50;;;8.40;;
63807;SDS011;49961;43.970;22.868;2022-09-09T03:20:20;10.67;;;8.53;;
63807;SDS011;49961;43.970;22.868;2022-09-09T03:21:21;13.50;;;8.13;;
63807;SDS011;49961;43.970;22.868;2022-09-09T03:22:22;12.03;;;8.40;;
63807;SDS011;49961;43.970;22.868;2022-09-09T03:23:22;11.17;;;8.50;;
63807;SDS011;49961;43.970;22.868;2022-09-09T03:24:23;12.33;;;8.37;;
63807;SDS011;49961;43.970;22.868;2022-09-09T03:25:23;10.13;;;7.50;;
63807;SDS011;49961;43.970;22.868;2022-09-09T03:26:24;11.17;;;8.17;;
63807;SDS011;49961;43.970;22.868;2022-09-09T03:27:25;12.27;;;7.87;;
63807;SDS011;49961;43.970;22.868;2022-09-09T03:28:25;13.90;;;8.00;;
63807;SDS011;49961;43.970;22.868;2022-09-09T03:29:31;21.03;;;8.27;;
63807;SDS011;49961;43.970;22.868;2022-09-09T03:30:31;12.00;;;8.00;;
63807;SDS011;49961;43.970;22.868;2022-09-09T03:31:32;11.63;;;7.57;;
63807;SDS011;49961;43.970;22.868;2022-09-09T03:32:33;14.50;;;7.90;;
63807;SDS011;49961;43.970;22.868;2022-09-09T03:33:34;16.50;;;8.90;;
63807;SDS011;49961;43.970;22.868;2022-09-09T03:34:36;11.47;;;8.53;;
63807;SDS011;49961;43.970;22.868;2022-09-09T03:35:44;13.57;;;9.23;;
63807;SDS011;49961;43.970;22.868;2022-09-09T03:36:48;12.13;;;8.40;;
63807;SDS011;49961;43.970;22.868;2022-09-09T03:37:49;10.67;;;8.10;;
63807;SDS011;49961;43.970;22.868;2022-09-09T03:38:49;11.73;;;7.60;;
63807;SDS011;49961;43.970;22.868;2022-09-09T03:39:50;16.20;;;7.73;;
63807;SDS011;49961;43.970;22.868;2022-09-09T03:40:51;10.97;;;8.27;;
63807;SDS011;49961;43.970;22.868;2022-09-09T03:41:58;11.20;;;8.67;;
63807;SDS011;49961;43.970;22.868;2022-09-09T03:42:59;15.43;;;8.53;;
63807;SDS011;49961;43.970;22.868;2022-09-09T03:43:59;11.20;;;7.97;;
63807;SDS011;49961;43.970;22.868;2022-09-09T03:45:00;17.70;;;8.50;;
63807;SDS011;49961;43.970;22.868;2022-09-09T03:46:00;14.10;;;8.47;;
63807;SDS011;49961;43.970;22.868;2022-09-09T03:47:01;11.90;;;7.90;;
63807;SDS011;49961;43.970;22.868;2022-09-09T03:48:02;13.83;;;8.30;;
63807;SDS011;49961;43.970;22.868;2022-09-09T03:49:02;10.90;;;8.20;;
63807;SDS011;49961;43.970;22.868;2022-09-09T03:50:03;12.23;;;9.00;;
63807;SDS011;49961;43.970;22.868;2022-09-09T03:51:07;13.23;;;8.27;;
63807;SDS011;49961;43.970;22.868;2022-09-09T03:52:08;13.77;;;9.00;;
63807;SDS011;49961;43.970;22.868;2022-09-09T03:53:09;14.40;;;9.03;;
63807;SDS011;49961;43.970;22.868;2022-09-09T03:54:10;12.30;;;8.10;;
63807;SDS011;49961;43.970;22.868;2022-09-09T03:55:10;9.90;;;8.57;;
63807;SDS011;49961;43.970;22.868;2022-09-09T03:56:11;14.40;;;8.10;;
63807;SDS011;49961;43.970;22.868;2022-09-09T03:57:11;24.40;;;9.43;;
63807;SDS011;49961;43.970;22.868;2022-09-09T03:58:15;40.43;;;10.73;;
63807;SDS011;49961;43.970;22.868;2022-09-09T03:59:18;41.63;;;10.43;;
63807;SDS011;49961;43.970;22.868;2022-09-09T04:00:20;31.40;;;11.20;;
63807;SDS011;49961;43.970;22.868;2022-09-09T04:01:21;35.00;;;11.03;;
63807;SDS011;49961;43.970;22.868;2022-09-09T04:02:21;48.80;;;12.37;;
63807;SDS011;49961;43.970;22.868;2022-09-09T04:03:22;34.60;;;10.60;;
63807;SDS011;49961;43.970;22.868;2022-09-09T04:04:24;39.50;;;10.73;;
63807;SDS011;49961;43.970;22.868;2022-09-09T04:05:26;34.83;;;11.23;;
63807;SDS011;49961;43.970;22.868;2022-09-09T04:06:27;35.00;;;11.00;;
63807;SDS011;49961;43.970;22.868;2022-09-09T04:07:28;27.07;;;10.10;;
63807;SDS011;49961;43.970;22.868;2022-09-09T04:08:28;33.47;;;9.97;;
63807;SDS011;49961;43.970;22.868;2022-09-09T04:09:33;23.10;;;9.87;;
63807;SDS011;49961;43.970;22.868;2022-09-09T04:10:34;30.93;;;10.60;;
63807;SDS011;49961;43.970;22.868;2022-09-09T04:11:38;22.53;;;9.57;;
63807;SDS011;49961;43.970;22.868;2022-09-09T04:12:38;23.13;;;9.13;;
63807;SDS011;49961;43.970;22.868;2022-09-09T04:13:39;14.80;;;9.50;;
63807;SDS011;49961;43.970;22.868;2022-09-09T04:14:40;19.23;;;10.03;;
63807;SDS011;49961;43.970;22.868;2022-09-09T04:15:40;16.90;;;10.63;;
63807;SDS011;49961;43.970;22.868;2022-09-09T04:16:41;16.20;;;10.57;;
63807;SDS011;49961;43.970;22.868;2022-09-09T04:17:44;11.47;;;10.37;;
63807;SDS011;49961;43.970;22.868;2022-09-09T04:18:45;16.20;;;10.50;;
63807;SDS011;49961;43.970;22.868;2022-09-09T04:19:45;21.30;;;11.37;;
63807;SDS011;49961;43.970;22.868;2022-09-09T04:20:49;29.93;;;11.77;;
63807;SDS011;49961;43.970;22.868;2022-09-09T04:21:51;22.13;;;10.30;;
63807;SDS011;49961;43.970;22.868;2022-09-09T04:22:52;19.57;;;9.57;;
63807;SDS011;49961;43.970;22.868;2022-09-09T04:23:52;16.03;;;9.03;;
63807;SDS011;49961;43.970;22.868;2022-09-09T04:24:52;12.83;;;8.17;;
63807;SDS011;49961;43.970;22.868;2022-09-09T04:25:53;12.50;;;8.77;;
63807;SDS011;49961;43.970;22.868;2022-09-09T04:26:55;14.27;;;8.80;;
63807;SDS011;49961;43.970;22.868;2022-09-09T04:27:56;16.30;;;9.17;;
63807;SDS011;49961;43.970;22.868;2022-09-09T04:28:58;14.60;;;9.30;;
63807;SDS011;49961;43.970;22.868;2022-09-09T04:29:58;10.00;;;8.93;;
63807;SDS011;49961;43.970;22.868;2022-09-09T04:31:06;13.43;;;9.50;;
63807;SDS011;49961;43.970;22.868;2022-09-09T04:32:09;18.47;;;9.33;;
63807;SDS011;49961;43.970;22.868;2022-09-09T04:33:09;20.60;;;10.63;;
63807;SDS011;49961;43.970;22.868;2022-09-09T04:34:10;18.17;;;10.17;;
63807;SDS011;49961;43.970;22.868;2022-09-09T04:35:11;16.07;;;9.37;;
63807;SDS011;49961;43.970;22.868;2022-09-09T04:36:11;11.30;;;9.10;;
63807;SDS011;49961;43.970;22.868;2022-09-09T04:37:12;15.43;;;9.20;;
63807;SDS011;49961;43.970;22.868;2022-09-09T04:38:14;14.37;;;8.80;;
63807;SDS011;49961;43.970;22.868;2022-09-09T04:39:15;13.07;;;8.97;;
63807;SDS011;49961;43.970;22.868;2022-09-09T04:40:15;13.73;;;9.40;;
63807;SDS011;49961;43.970;22.868;2022-09-09T04:41:16;13.57;;;9.10;;
63807;SDS011;49961;43.970;22.868;2022-09-09T04:42:16;10.87;;;9.40;;
63807;SDS011;49961;43.970;22.868;2022-09-09T04:43:19;12.50;;;9.43;;
63807;SDS011;49961;43.970;22.868;2022-09-09T04:44:20;15.87;;;9.37;;
63807;SDS011;49961;43.970;22.868;2022-09-09T04:45:21;13.33;;;10.10;;
63807;SDS011;49961;43.970;22.868;2022-09-09T04:46:22;15.03;;;11.27;;
63807;SDS011;49961;43.970;22.868;2022-09-09T04:47:22;13.27;;;10.13;;
63807;SDS011;49961;43.970;22.868;2022-09-09T04:48:23;16.80;;;10.60;;
63807;SDS011;49961;43.970;22.868;2022-09-09T04:49:25;17.27;;;10.43;;
63807;SDS011;49961;43.970;22.868;2022-09-09T04:50:26;16.50;;;9.93;;
63807;SDS011;49961;43.970;22.868;2022-09-09T04:51:26;16.30;;;9.73;;
63807;SDS011;49961;43.970;22.868;2022-09-09T04:52:26;11.57;;;9.00;;
63807;SDS011;49961;43.970;22.868;2022-09-09T04:53:28;12.20;;;9.30;;
63807;SDS011;49961;43.970;22.868;2022-09-09T04:54:28;14.13;;;9.00;;
63807;SDS011;49961;43.970;22.868;2022-09-09T04:55:29;10.37;;;8.77;;
63807;SDS011;49961;43.970;22.868;2022-09-09T04:56:30;10.73;;;8.53;;
63807;SDS011;49961;43.970;22.868;2022-09-09T04:57:30;11.03;;;8.27;;
63807;SDS011;49961;43.970;22.868;2022-09-09T04:58:32;10.27;;;8.67;;
63807;SDS011;49961;43.970;22.868;2022-09-09T04:59:33;12.77;;;8.93;;
63807;SDS011;49961;43.970;22.868;2022-09-09T05:00:37;10.83;;;8.93;;
63807;SDS011;49961;43.970;22.868;2022-09-09T05:01:37;15.13;;;8.77;;
63807;SDS011;49961;43.970;22.868;2022-09-09T05:02:38;11.67;;;8.37;;
63807;SDS011;49961;43.970;22.868;2022-09-09T05:03:39;15.87;;;9.17;;
63807;SDS011;49961;43.970;22.868;2022-09-09T05:04:40;10.33;;;8.77;;
63807;SDS011;49961;43.970;22.868;2022-09-09T05:05:40;16.90;;;9.50;;
63807;SDS011;49961;43.970;22.868;2022-09-09T05:06:41;13.43;;;9.33;;
63807;SDS011;49961;43.970;22.868;2022-09-09T05:07:42;14.43;;;8.87;;
63807;SDS011;49961;43.970;22.868;2022-09-09T05:08:43;10.67;;;8.33;;
63807;SDS011;49961;43.970;22.868;2022-09-09T05:09:44;12.97;;;8.37;;
63807;SDS011;49961;43.970;22.868;2022-09-09T05:10:45;11.27;;;7.83;;
63807;SDS011;49961;43.970;22.868;2022-09-09T05:11:45;9.30;;;8.13;;
63807;SDS011;49961;43.970;22.868;2022-09-09T05:12:52;10.20;;;8.43;;
63807;SDS011;49961;43.970;22.868;2022-09-09T05:13:54;9.87;;;8.40;;
63807;SDS011;49961;43.970;22.868;2022-09-09T05:14:56;9.30;;;8.20;;
63807;SDS011;49961;43.970;22.868;2022-09-09T05:15:56;15.63;;;9.70;;
63807;SDS011;49961;43.970;22.868;2022-09-09T05:16:57;11.00;;;9.50;;
63807;SDS011;49961;43.970;22.868;2022-09-09T05:17:58;13.87;;;9.43;;
63807;SDS011;49961;43.970;22.868;2022-09-09T05:19:00;13.17;;;9.73;;
63807;SDS011;49961;43.970;22.868;2022-09-09T05:20:02;13.13;;;9.50;;
63807;SDS011;49961;43.970;22.868;2022-09-09T05:21:04;12.10;;;9.17;;
63807;SDS011;49961;43.970;22.868;2022-09-09T05:22:05;11.70;;;9.57;;
63807;SDS011;49961;43.970;22.868;2022-09-09T05:23:05;13.47;;;10.17;;
63807;SDS011;49961;43.970;22.868;2022-09-09T05:24:06;14.73;;;9.93;;
63807;SDS011;49961;43.970;22.868;2022-09-09T05:25:06;13.07;;;9.87;;
63807;SDS011;49961;43.970;22.868;2022-09-09T05:26:09;10.90;;;9.77;;
63807;SDS011;49961;43.970;22.868;2022-09-09T05:27:13;14.47;;;10.10;;
63807;SDS011;49961;43.970;22.868;2022-09-09T05:28:14;13.20;;;9.43;;
63807;SDS011;49961;43.970;22.868;2022-09-09T05:29:14;13.60;;;10.20;;
63807;SDS011;49961;43.970;22.868;2022-09-09T05:30:17;15.63;;;10.03;;
63807;SDS011;49961;43.970;22.868;2022-09-09T05:31:19;22.53;;;10.53;;
63807;SDS011;49961;43.970;22.868;2022-09-09T05:32:19;13.80;;;10.13;;
63807;SDS011;49961;43.970;22.868;2022-09-09T05:33:20;15.53;;;9.37;;
63807;SDS011;49961;43.970;22.868;2022-09-09T05:34:21;13.13;;;9.40;;
63807;SDS011;49961;43.970;22.868;2022-09-09T05:35:21;14.80;;;9.63;;
63807;SDS011;49961;43.970;22.868;2022-09-09T05:36:23;13.47;;;9.73;;
63807;SDS011;49961;43.970;22.868;2022-09-09T05:37:23;16.17;;;10.57;;
63807;SDS011;49961;43.970;22.868;2022-09-09T05:38:24;16.23;;;10.73;;
63807;SDS011;49961;43.970;22.868;2022-09-09T05:39:25;18.20;;;10.10;;
63807;SDS011;49961;43.970;22.868;2022-09-09T05:40:25;14.10;;;9.90;;
63807;SDS011;49961;43.970;22.868;2022-09-09T05:41:26;21.20;;;10.10;;
63807;SDS011;49961;43.970;22.868;2022-09-09T05:42:30;13.10;;;9.37;;
63807;SDS011;49961;43.970;22.868;2022-09-09T05:43:32;13.30;;;9.80;;
63807;SDS011;49961;43.970;22.868;2022-09-09T05:44:33;16.17;;;9.80;;
63807;SDS011;49961;43.970;22.868;2022-09-09T05:45:33;19.63;;;9.60;;
63807;SDS011;49961;43.970;22.868;2022-09-09T05:46:34;14.57;;;9.70;;
63807;SDS011;49961;43.970;22.868;2022-09-09T05:47:34;16.40;;;9.60;;
63807;SDS011;49961;43.970;22.868;2022-09-09T05:48:40;17.37;;;9.47;;
63807;SDS011;49961;43.970;22.868;2022-09-09T05:49:43;18.47;;;10.33;;
63807;SDS011;49961;43.970;22.868;2022-09-09T05:50:43;19.27;;;9.70;;
63807;SDS011;49961;43.970;22.868;2022-09-09T05:51:53;16.97;;;9.33;;
63807;SDS011;49961;43.970;22.868;2022-09-09T05:52:54;14.30;;;9.60;;
63807;SDS011;49961;43.970;22.868;2022-09-09T05:53:54;13.13;;;9.23;;
63807;SDS011;49961;43.970;22.868;2022-09-09T05:54:58;20.27;;;10.47;;
63807;SDS011;49961;43.970;22.868;2022-09-09T05:56:03;16.10;;;9.50;;
63807;SDS011;49961;43.970;22.868;2022-09-09T05:57:04;17.10;;;10.20;;
63807;SDS011;49961;43.970;22.868;2022-09-09T05:58:05;13.80;;;9.93;;
63807;SDS011;49961;43.970;22.868;2022-09-09T05:59:06;18.73;;;10.47;;
63807;SDS011;49961;43.970;22.868;2022-09-09T06:00:07;15.80;;;9.87;;
63807;SDS011;49961;43.970;22.868;2022-09-09T06:01:12;18.47;;;9.80;;
63807;SDS011;49961;43.970;22.868;2022-09-09T06:02:17;18.30;;;11.00;;
63807;SDS011;49961;43.970;22.868;2022-09-09T06:03:17;20.70;;;11.03;;
63807;SDS011;49961;43.970;22.868;2022-09-09T06:04:18;19.30;;;11.33;;
63807;SDS011;49961;43.970;22.868;2022-09-09T06:05:22;20.80;;;11.50;;
63807;SDS011;49961;43.970;22.868;2022-09-09T06:06:24;17.37;;;10.70;;
63807;SDS011;49961;43.970;22.868;2022-09-09T06:07:26;20.37;;;11.80;;
63807;SDS011;49961;43.970;22.868;2022-09-09T06:08:27;17.20;;;11.40;;
63807;SDS011;49961;43.970;22.868;2022-09-09T06:09:28;18.63;;;10.90;;
63807;SDS011;49961;43.970;22.868;2022-09-09T06:10:30;19.20;;;11.23;;
63807;SDS011;49961;43.970;22.868;2022-09-09T06:11:31;16.13;;;11.57;;
63807;SDS011;49961;43.970;22.868;2022-09-09T06:12:32;14.97;;;11.03;;
63807;SDS011;49961;43.970;22.868;2022-09-09T06:13:32;12.93;;;10.27;;
63807;SDS011;49961;43.970;22.868;2022-09-09T06:14:33;13.10;;;9.70;;
63807;SDS011;49961;43.970;22.868;2022-09-09T06:15:34;13.30;;;10.07;;
63807;SDS011;49961;43.970;22.868;2022-09-09T06:16:34;12.10;;;9.83;;
63807;SDS011;49961;43.970;22.868;2022-09-09T06:17:37;14.20;;;8.87;;
63807;SDS011;49961;43.970;22.868;2022-09-09T06:18:39;12.87;;;9.67;;
63807;SDS011;49961;43.970;22.868;2022-09-09T06:19:40;13.27;;;9.20;;
63807;SDS011;49961;43.970;22.868;2022-09-09T06:20:41;12.20;;;9.60;;
63807;SDS011;49961;43.970;22.868;2022-09-09T06:21:41;16.17;;;9.50;;
63807;SDS011;49961;43.970;22.868;2022-09-09T06:22:44;13.67;;;9.40;;
63807;SDS011;49961;43.970;22.868;2022-09-09T06:23:46;14.53;;;8.87;;
63807;SDS011;49961;43.970;22.868;2022-09-09T06:24:47;12.83;;;9.00;;
63807;SDS011;49961;43.970;22.868;2022-09-09T06:25:48;11.00;;;8.60;;
63807;SDS011;49961;43.970;22.868;2022-09-09T06:26:49;10.00;;;8.53;;
63807;SDS011;49961;43.970;22.868;2022-09-09T06:27:49;12.40;;;8.90;;
63807;SDS011;49961;43.970;22.868;2022-09-09T06:28:50;13.73;;;9.10;;
63807;SDS011;49961;43.970;22.868;2022-09-09T06:29:52;12.43;;;9.33;;
63807;SDS011;49961;43.970;22.868;2022-09-09T06:30:59;14.00;;;9.33;;
63807;SDS011;49961;43.970;22.868;2022-09-09T06:32:01;10.40;;;8.57;;
63807;SDS011;49961;43.970;22.868;2022-09-09T06:33:02;13.27;;;8.60;;
63807;SDS011;49961;43.970;22.868;2022-09-09T06:34:04;11.40;;;8.20;;
63807;SDS011;49961;43.970;22.868;2022-09-09T06:35:06;10.70;;;8.33;;
63807;SDS011;49961;43.970;22.868;2022-09-09T06:36:17;14.47;;;8.50;;
63807;SDS011;49961;43.970;22.868;2022-09-09T06:37:24;9.67;;;7.83;;
63807;SDS011;49961;43.970;22.868;2022-09-09T06:38:27;13.67;;;8.80;;
63807;SDS011;49961;43.970;22.868;2022-09-09T06:39:30;14.23;;;9.00;;
63807;SDS011;49961;43.970;22.868;2022-09-09T06:40:31;14.73;;;8.77;;
63807;SDS011;49961;43.970;22.868;2022-09-09T06:41:31;15.10;;;9.50;;
63807;SDS011;49961;43.970;22.868;2022-09-09T06:42:33;12.70;;;8.90;;
63807;SDS011;49961;43.970;22.868;2022-09-09T06:43:33;14.30;;;9.10;;
63807;SDS011;49961;43.970;22.868;2022-09-09T06:44:34;11.70;;;8.30;;
63807;SDS011;49961;43.970;22.868;2022-09-09T06:45:36;14.10;;;8.73;;
63807;SDS011;49961;43.970;22.868;2022-09-09T06:46:36;15.50;;;9.07;;
63807;SDS011;49961;43.970;22.868;2022-09-09T06:47:38;14.30;;;8.83;;
63807;SDS011;49961;43.970;22.868;2022-09-09T06:48:38;15.80;;;9.10;;
63807;SDS011;49961;43.970;22.868;2022-09-09T06:49:42;16.17;;;9.77;;
63807;SDS011;49961;43.970;22.868;2022-09-09T06:50:43;15.50;;;9.10;;
63807;SDS011;49961;43.970;22.868;2022-09-09T06:51:44;13.70;;;9.37;;
63807;SDS011;49961;43.970;22.868;2022-09-09T06:52:46;15.93;;;9.63;;
63807;SDS011;49961;43.970;22.868;2022-09-09T06:53:50;14.50;;;8.63;;
63807;SDS011;49961;43.970;22.868;2022-09-09T06:54:51;12.40;;;8.83;;